createdAt,value
2018-06-10T00:00:40.006Z,13.73
2018-06-10T00:03:08.691Z,13.57
2018-06-10T00:05:38.221Z,14.93
2018-06-10T00:08:07.237Z,15.43
2018-06-10T00:10:36.328Z,15.30
2018-06-10T00:13:05.387Z,16.77
2018-06-10T00:15:34.122Z,15.77
2018-06-10T00:18:02.834Z,15.10
2018-06-10T00:20:31.465Z,15.10
2018-06-10T00:23:00.106Z,15.93
2018-06-10T00:25:28.702Z,15.87
2018-06-10T00:27:57.353Z,15.77
2018-06-10T00:30:25.996Z,16.00
2018-06-10T00:32:54.696Z,15.23
2018-06-10T00:35:23.609Z,16.83
2018-06-10T00:37:52.649Z,15.17
2018-06-10T00:40:21.977Z,15.03
2018-06-10T00:42:51.189Z,15.60
2018-06-10T00:45:20.663Z,14.83
2018-06-10T00:47:49.624Z,14.47
2018-06-10T00:50:19.599Z,14.33
2018-06-10T00:52:49.435Z,12.83
2018-06-10T00:55:19.612Z,12.00
2018-06-10T00:57:49.746Z,10.97
2018-06-10T01:00:19.618Z,10.73
2018-06-10T01:02:50.016Z,9.50
2018-06-10T01:05:19.433Z,10.00
2018-06-10T01:07:48.546Z,9.97
2018-06-10T01:10:18.983Z,10.50
2018-06-10T01:12:48.215Z,8.43
2018-06-10T01:15:17.939Z,8.80
2018-06-10T01:17:47.297Z,8.83
2018-06-10T01:20:16.824Z,9.03
2018-06-10T01:22:45.904Z,8.17
2018-06-10T01:25:14.825Z,9.60
2018-06-10T01:27:43.497Z,11.57
2018-06-10T01:30:12.283Z,12.53
2018-06-10T01:32:40.936Z,14.17
2018-06-10T01:35:09.685Z,12.40
2018-06-10T01:37:39.109Z,10.97
2018-06-10T01:40:08.615Z,10.10
2018-06-10T01:42:37.646Z,10.63
2018-06-10T01:45:06.799Z,10.20
2018-06-10T01:47:36.015Z,10.03
2018-06-10T01:50:04.974Z,9.57
2018-06-10T01:52:33.873Z,10.33
2018-06-10T01:55:02.625Z,10.63
2018-06-10T01:57:31.296Z,11.03
2018-06-10T01:59:59.934Z,10.40
2018-06-10T02:02:28.546Z,9.30
2018-06-10T02:04:57.210Z,8.93
2018-06-10T02:07:25.842Z,8.93
2018-06-10T02:09:54.595Z,9.50
2018-06-10T02:12:23.645Z,9.93
2018-06-10T02:14:52.812Z,10.00
2018-06-10T02:17:22.614Z,8.93
2018-06-10T02:19:51.901Z,9.80
2018-06-10T02:22:21.134Z,8.77
2018-06-10T02:24:50.827Z,9.03
2018-06-10T02:27:19.920Z,9.93
2018-06-10T02:29:49.223Z,8.63
2018-06-10T02:32:18.471Z,8.77
2018-06-10T02:34:48.204Z,9.50
2018-06-10T02:37:18.159Z,8.43
2018-06-10T02:39:48.352Z,8.83
2018-06-10T02:42:18.352Z,7.77
2018-06-10T02:44:49.076Z,9.03
2018-06-10T02:47:19.949Z,9.60
2018-06-10T02:49:49.450Z,8.73
2018-06-10T02:52:18.484Z,8.87
2018-06-10T02:54:48.384Z,8.47
2018-06-10T02:57:19.788Z,9.23
2018-06-10T02:59:49.887Z,9.60
2018-06-10T03:02:20.334Z,9.17
2018-06-10T03:04:50.310Z,8.87
2018-06-10T03:07:20.052Z,8.07
2018-06-10T03:09:51.219Z,9.27
2018-06-10T03:12:20.965Z,7.93
2018-06-10T03:14:50.258Z,8.70
2018-06-10T03:17:20.573Z,8.67
2018-06-10T03:19:49.971Z,8.80
2018-06-10T03:22:20.837Z,9.00
2018-06-10T03:24:50.205Z,9.43
2018-06-10T03:27:19.589Z,9.43
2018-06-10T03:29:48.616Z,9.50
2018-06-10T03:32:18.524Z,9.07
2018-06-10T03:34:48.115Z,9.27
2018-06-10T03:37:17.287Z,9.20
2018-06-10T03:39:46.458Z,10.20
2018-06-10T03:42:15.507Z,9.43
2018-06-10T03:44:44.785Z,9.67
2018-06-10T03:47:14.394Z,9.87
2018-06-10T03:49:43.045Z,9.57
2018-06-10T03:52:11.662Z,9.37
2018-06-10T03:54:40.337Z,9.63
2018-06-10T03:57:09.062Z,10.47
2018-06-10T03:59:37.985Z,10.67
2018-06-10T04:02:06.886Z,10.63
2018-06-10T04:04:36.170Z,11.20
2018-06-10T04:07:05.348Z,11.23
2018-06-10T04:09:34.126Z,12.70
2018-06-10T04:12:02.810Z,11.60
2018-06-10T04:14:31.755Z,10.47
2018-06-10T04:17:00.403Z,11.37
2018-06-10T04:19:29.038Z,11.00
2018-06-10T04:21:57.704Z,12.43
2018-06-10T04:24:26.335Z,11.97
2018-06-10T04:26:54.950Z,11.03
2018-06-10T04:29:23.704Z,11.43
2018-06-10T04:31:52.502Z,12.20
2018-06-10T04:34:22.306Z,14.20
2018-06-10T04:36:51.590Z,11.87
2018-06-10T04:39:20.601Z,9.97
2018-06-10T04:41:50.643Z,8.77
2018-06-10T04:44:20.301Z,10.03
2018-06-10T04:46:50.656Z,12.27
2018-06-10T04:49:21.037Z,12.50
2018-06-10T04:51:50.226Z,13.20
2018-06-10T04:54:20.019Z,12.00
2018-06-10T04:56:50.232Z,15.60
2018-06-10T04:59:19.644Z,12.20
2018-06-10T05:01:48.976Z,14.53
2018-06-10T05:04:19.081Z,15.50
2018-06-10T05:06:48.265Z,15.67
2018-06-10T05:09:20.346Z,14.00
2018-06-10T05:11:50.672Z,14.80
2018-06-10T05:14:22.382Z,13.23
2018-06-10T05:16:51.917Z,15.13
2018-06-10T05:19:21.111Z,20.23
2018-06-10T05:21:50.395Z,19.30
2018-06-10T05:24:20.204Z,21.37
2018-06-10T05:26:49.972Z,19.37
2018-06-10T05:29:19.332Z,17.90
2018-06-10T05:31:49.017Z,18.77
2018-06-10T05:34:18.547Z,17.37
2018-06-10T05:36:48.035Z,18.83
2018-06-10T05:39:17.697Z,20.20
2018-06-10T05:41:47.022Z,16.87
2018-06-10T05:44:16.163Z,20.20
2018-06-10T05:46:44.944Z,19.20
2018-06-10T05:49:14.329Z,18.37
2018-06-10T05:51:51.667Z,19.23
2018-06-10T05:54:20.875Z,19.67
2018-06-10T05:56:50.312Z,17.43
2018-06-10T05:59:20.279Z,20.40
2018-06-10T06:01:49.298Z,19.60
2018-06-10T06:04:18.711Z,19.47
2018-06-10T06:06:48.260Z,20.00
2018-06-10T06:09:17.715Z,20.10
2018-06-10T06:11:47.585Z,20.53
2018-06-10T06:14:17.038Z,21.00
2018-06-10T06:16:46.779Z,17.43
2018-06-10T06:19:16.477Z,17.93
2018-06-10T06:21:45.947Z,20.47
2018-06-10T06:24:15.243Z,20.40
2018-06-10T06:26:44.282Z,20.37
2018-06-10T06:29:13.324Z,20.40
2018-06-10T06:31:42.034Z,20.93
2018-06-10T06:34:10.714Z,20.33
2018-06-10T06:36:40.332Z,20.97
2018-06-10T06:39:10.418Z,20.17
2018-06-10T06:41:39.167Z,20.40
2018-06-10T06:44:07.610Z,18.13
2018-06-10T06:46:37.345Z,22.00
2018-06-10T06:49:06.610Z,23.60
2018-06-10T06:51:35.648Z,24.23
2018-06-10T06:54:04.542Z,24.47
2018-06-10T06:56:33.234Z,21.13
2018-06-10T06:59:01.868Z,19.83
2018-06-10T07:01:30.512Z,21.43
2018-06-10T07:03:59.187Z,19.70
2018-06-10T07:06:27.832Z,21.83
2018-06-10T07:08:56.481Z,21.53
2018-06-10T07:11:25.108Z,20.23
2018-06-10T07:13:54.063Z,19.53
2018-06-10T07:16:23.337Z,18.73
2018-06-10T07:18:52.366Z,20.03
2018-06-10T07:21:21.012Z,19.70
2018-06-10T07:23:50.054Z,20.27
2018-06-10T07:26:19.046Z,22.17
2018-06-10T07:28:48.440Z,21.90
2018-06-10T07:34:09.564Z,21.20
2018-06-10T07:36:38.922Z,21.07
2018-06-10T07:39:07.762Z,21.37
2018-06-10T07:41:37.113Z,23.27
2018-06-10T07:44:06.494Z,24.23
2018-06-10T07:46:35.609Z,24.40
2018-06-10T07:49:04.643Z,24.00
2018-06-10T07:51:33.535Z,23.37
2018-06-10T07:54:01.841Z,25.63
2018-06-10T07:56:30.461Z,23.97
2018-06-10T07:59:00.048Z,26.67
2018-06-10T08:01:29.076Z,27.27
2018-06-10T08:03:57.732Z,27.37
2018-06-10T08:06:26.485Z,28.30
2018-06-10T08:08:55.185Z,27.90
2018-06-10T08:11:24.053Z,26.93
2018-06-10T08:13:55.011Z,29.10
2018-06-10T08:16:24.331Z,27.10
2018-06-10T08:18:53.099Z,27.97
2018-06-10T08:21:22.436Z,27.10
2018-06-10T08:23:51.172Z,28.43
2018-06-10T08:26:20.546Z,31.00
2018-06-10T08:28:51.251Z,29.43
2018-06-10T08:31:19.953Z,29.47
2018-06-10T08:33:48.732Z,26.57
2018-06-10T08:36:17.745Z,29.40
2018-06-10T08:38:46.646Z,29.17
2018-06-10T08:41:15.941Z,29.37
2018-06-10T08:43:44.767Z,30.40
2018-06-10T08:46:15.222Z,28.43
2018-06-10T08:48:44.504Z,29.83
2018-06-10T08:51:13.391Z,32.07
2018-06-10T08:53:42.277Z,29.47
2018-06-10T08:56:11.101Z,30.80
2018-06-10T08:58:40.591Z,31.03
2018-06-10T09:01:09.236Z,31.77
2018-06-10T09:03:37.854Z,31.53
2018-06-10T09:06:06.550Z,32.77
2018-06-10T09:08:35.178Z,34.37
2018-06-10T09:11:03.814Z,32.40
2018-06-10T09:13:32.434Z,31.17
2018-06-10T09:16:01.515Z,32.13
2018-06-10T09:18:30.593Z,32.53
2018-06-10T09:20:59.946Z,34.53
2018-06-10T09:23:29.669Z,35.37
2018-06-10T09:25:59.056Z,34.13
2018-06-10T09:28:28.893Z,35.60
2018-06-10T09:30:58.613Z,36.43
2018-06-10T09:33:28.882Z,36.80
2018-06-10T09:35:58.514Z,34.93
2018-06-10T09:38:28.584Z,32.97
2018-06-10T09:40:58.184Z,34.23
2018-06-10T09:43:28.271Z,34.80
2018-06-10T09:45:58.091Z,35.20
2018-06-10T09:48:27.954Z,35.17
2018-06-10T09:50:57.444Z,36.33
2018-06-10T09:53:26.955Z,35.77
2018-06-10T09:55:57.099Z,38.13
2018-06-10T09:58:27.107Z,35.23
2018-06-10T10:00:57.558Z,35.10
2018-06-10T10:03:27.271Z,36.67
2018-06-10T10:05:59.394Z,37.53
2018-06-10T10:08:29.683Z,35.83
2018-06-10T10:10:59.218Z,38.30
2018-06-10T10:13:29.815Z,38.03
2018-06-10T10:16:00.478Z,39.50
2018-06-10T10:18:31.249Z,40.30
2018-06-10T10:21:00.344Z,39.63
2018-06-10T10:23:30.434Z,36.73
2018-06-10T10:26:00.067Z,38.30
2018-06-10T10:28:29.524Z,39.60
2018-06-10T10:30:59.326Z,40.77
2018-06-10T10:33:29.614Z,37.33
2018-06-10T10:36:00.158Z,38.50
2018-06-10T10:38:29.688Z,37.97
2018-06-10T10:41:00.256Z,38.10
2018-06-10T10:43:31.426Z,36.57
2018-06-10T10:46:00.994Z,38.50
2018-06-10T10:48:30.414Z,40.73
2018-06-10T10:51:00.282Z,39.30
2018-06-10T10:53:30.367Z,40.70
2018-06-10T10:56:01.659Z,39.20
2018-06-10T10:58:30.774Z,39.83
2018-06-10T11:01:00.277Z,40.90
2018-06-10T11:03:30.407Z,42.35
2018-06-10T11:06:00.810Z,41.73
2018-06-10T11:08:30.280Z,43.77
2018-06-10T11:10:59.890Z,41.80
2018-06-10T11:13:29.722Z,40.63
2018-06-10T11:16:15.039Z,42.03
2018-06-10T11:18:44.034Z,38.20
2018-06-10T11:21:20.829Z,39.60
2018-06-10T11:23:49.462Z,38.38
2018-06-10T11:26:18.369Z,37.23
2018-06-10T11:28:47.041Z,35.83
2018-06-10T11:31:16.142Z,36.15
2018-06-10T11:33:46.212Z,34.73
2018-06-10T11:36:15.047Z,36.58
2018-06-10T11:38:43.675Z,37.17
2018-06-10T11:41:12.286Z,34.48
2018-06-10T11:43:40.953Z,35.00
2018-06-10T11:46:09.574Z,34.65
2018-06-10T11:48:38.205Z,34.35
2018-06-10T11:51:06.850Z,34.40
2018-06-10T11:53:35.483Z,33.73
2018-06-10T11:56:04.365Z,33.35
2018-06-10T11:58:33.486Z,32.98
2018-06-10T12:01:02.815Z,33.78
2018-06-10T12:03:31.915Z,31.52
2018-06-10T12:06:01.054Z,31.42
2018-06-10T12:08:30.709Z,30.77
2018-06-10T12:10:59.951Z,33.20
2018-06-10T12:13:29.071Z,35.20
2018-06-10T12:15:58.175Z,33.67
2018-06-10T12:18:27.777Z,36.20
2018-06-10T12:20:57.243Z,34.90
2018-06-10T12:23:26.703Z,35.63
2018-06-10T12:25:56.929Z,35.48
2018-06-10T12:28:27.616Z,33.92
2018-06-10T12:30:57.940Z,33.42
2018-06-10T12:33:28.705Z,31.90
2018-06-10T12:35:59.977Z,33.78
2018-06-10T12:38:30.355Z,34.63
2018-06-10T12:41:00.603Z,35.00
2018-06-10T12:43:30.312Z,34.43
2018-06-10T12:46:00.068Z,34.83
2018-06-10T12:48:29.187Z,35.00
2018-06-10T12:50:59.888Z,36.25
2018-06-10T12:53:29.359Z,37.65
2018-06-10T12:55:59.073Z,34.33
2018-06-10T12:58:31.150Z,37.30
2018-06-10T13:01:00.414Z,38.78
2018-06-10T13:03:29.770Z,37.73
2018-06-10T13:05:59.117Z,36.73
2018-06-10T13:08:29.343Z,36.98
2018-06-10T13:11:13.232Z,38.98
2018-06-10T13:13:41.991Z,37.95
2018-06-10T13:16:10.762Z,38.38
2018-06-10T13:18:39.494Z,36.70
2018-06-10T13:21:08.162Z,37.17
2018-06-10T13:23:36.780Z,38.45
2018-06-10T13:26:05.513Z,36.98
2018-06-10T13:28:34.172Z,38.92
2018-06-10T13:31:02.963Z,38.53
2018-06-10T13:33:31.980Z,39.03
2018-06-10T13:36:01.763Z,39.30
2018-06-10T13:38:30.999Z,41.98
2018-06-10T13:41:00.438Z,44.18
2018-06-10T13:43:30.031Z,39.75
2018-06-10T13:45:59.884Z,37.63
2018-06-10T13:48:29.285Z,36.20
2018-06-10T13:50:58.921Z,37.10
2018-06-10T13:53:28.331Z,32.78
2018-06-10T13:55:58.535Z,33.58
2018-06-10T13:58:28.145Z,33.28
2018-06-10T14:00:57.417Z,33.23
2018-06-10T14:03:27.521Z,32.35
2018-06-10T14:05:57.271Z,31.55
2018-06-10T14:08:28.105Z,32.90
2018-06-10T14:10:58.114Z,31.07
2018-06-10T14:13:27.974Z,32.78
2018-06-10T14:15:58.903Z,32.33
2018-06-10T14:18:28.693Z,33.42
2018-06-10T14:20:58.629Z,32.70
2018-06-10T14:23:28.744Z,31.40
2018-06-10T14:25:58.068Z,29.12
2018-06-10T14:28:27.453Z,29.92
2018-06-10T14:30:57.229Z,27.20
2018-06-10T14:33:27.521Z,26.17
2018-06-10T14:35:57.002Z,25.80
2018-06-10T14:38:26.710Z,26.07
2018-06-10T14:40:58.203Z,25.23
2018-06-10T14:43:27.569Z,26.20
2018-06-10T14:45:57.996Z,25.90
2018-06-10T14:48:27.912Z,25.40
2018-06-10T14:50:58.151Z,24.12
2018-06-10T14:53:28.794Z,23.27
2018-06-10T14:55:58.935Z,22.35
2018-06-10T14:58:29.655Z,21.95
2018-06-10T15:01:00.986Z,20.72
2018-06-10T15:03:30.446Z,20.55
2018-06-10T15:05:59.898Z,20.57
2018-06-10T15:08:29.941Z,18.45
2018-06-10T15:11:00.424Z,18.52
2018-06-10T15:13:30.105Z,17.02
2018-06-10T15:15:59.943Z,17.77
2018-06-10T15:18:29.575Z,17.07
2018-06-10T15:20:59.462Z,17.52
2018-06-10T15:23:28.843Z,16.80
2018-06-10T15:25:58.369Z,17.10
2018-06-10T15:28:28.498Z,17.50
2018-06-10T15:30:59.629Z,15.80
2018-06-10T15:33:29.377Z,13.32
2018-06-10T15:35:59.752Z,13.88
2018-06-10T15:38:30.047Z,13.10
2018-06-10T15:41:01.202Z,13.50
2018-06-10T15:43:30.414Z,11.12
2018-06-10T15:46:00.510Z,11.80
2018-06-10T15:48:30.091Z,11.53
2018-06-10T15:51:00.418Z,10.15
2018-06-10T15:53:29.665Z,11.90
2018-06-10T15:56:00.957Z,10.05
2018-06-10T15:58:31.327Z,11.00
2018-06-10T16:01:02.605Z,9.93
2018-06-10T16:03:31.810Z,12.55
2018-06-10T16:06:01.043Z,13.00
2018-06-10T16:08:30.726Z,12.82
2018-06-10T16:11:00.473Z,13.65
2018-06-10T16:13:29.916Z,13.22
2018-06-10T16:16:00.033Z,14.03
2018-06-10T16:18:30.096Z,14.25
2018-06-10T16:20:59.739Z,13.22
2018-06-10T16:23:29.751Z,14.93
2018-06-10T16:25:59.311Z,14.38
2018-06-10T16:28:29.536Z,15.28
2018-06-10T16:30:58.996Z,14.85
2018-06-10T16:33:29.314Z,14.68
2018-06-10T16:35:59.974Z,15.40
2018-06-10T16:38:30.498Z,15.05
2018-06-10T16:41:00.564Z,15.35
2018-06-10T16:43:30.319Z,15.43
2018-06-10T16:46:00.889Z,15.85
2018-06-10T16:48:30.322Z,14.87
2018-06-10T16:50:59.754Z,14.75
2018-06-10T16:53:29.670Z,13.50
2018-06-10T16:55:59.763Z,14.50
2018-06-10T16:58:29.270Z,14.25
2018-06-10T17:01:12.249Z,14.00
2018-06-10T17:03:41.412Z,14.33
2018-06-10T17:06:10.155Z,15.30
2018-06-10T17:08:38.853Z,13.35
2018-06-10T17:11:07.462Z,13.60
2018-06-10T17:13:36.071Z,13.15
2018-06-10T17:16:04.873Z,13.53
2018-06-10T17:18:39.621Z,13.58
2018-06-10T17:21:08.648Z,14.50
2018-06-10T17:23:37.354Z,14.25
2018-06-10T17:26:06.055Z,14.70
2018-06-10T17:28:34.741Z,13.80
2018-06-10T17:31:03.429Z,14.03
2018-06-10T17:33:32.364Z,13.35
2018-06-10T17:36:01.224Z,13.40
2018-06-10T17:38:30.379Z,13.15
2018-06-10T17:40:59.571Z,13.32
2018-06-10T17:43:29.299Z,12.05
2018-06-10T17:45:58.820Z,12.73
2018-06-10T17:48:28.229Z,11.12
2018-06-10T17:50:57.686Z,11.90
2018-06-10T17:53:26.766Z,11.70
2018-06-10T17:55:56.024Z,11.60
2018-06-10T17:58:26.368Z,10.80
2018-06-10T18:00:55.539Z,10.93
2018-06-10T18:03:25.080Z,11.45
2018-06-10T18:05:54.214Z,11.22
2018-06-10T18:08:26.313Z,10.77
2018-06-10T18:10:56.062Z,10.77
2018-06-10T18:13:26.347Z,11.47
2018-06-10T18:15:56.986Z,11.13
2018-06-10T18:18:26.618Z,10.83
2018-06-10T18:20:59.952Z,11.20
2018-06-10T18:23:29.491Z,11.83
2018-06-10T18:25:58.842Z,10.60
2018-06-10T18:28:28.366Z,10.70
2018-06-10T18:30:58.622Z,11.47
2018-06-10T18:33:28.013Z,11.83
2018-06-10T18:35:57.714Z,10.90
2018-06-10T18:38:27.454Z,11.27
2018-06-10T18:40:56.940Z,10.67
2018-06-10T18:43:26.420Z,10.60
2018-06-10T18:45:56.483Z,10.93
2018-06-10T18:48:25.987Z,10.63
2018-06-10T18:50:56.626Z,10.63
2018-06-10T18:53:25.888Z,10.73
2018-06-10T18:55:55.149Z,10.37
2018-06-10T18:58:25.213Z,10.57
2018-06-10T19:00:56.155Z,10.70
2018-06-10T19:03:26.269Z,9.60
2018-06-10T19:05:55.865Z,11.23
2018-06-10T19:08:25.350Z,11.07
2018-06-10T19:10:55.109Z,10.73
2018-06-10T19:13:24.679Z,11.03
2018-06-10T19:15:54.284Z,10.37
2018-06-10T19:18:24.677Z,10.17
2018-06-10T19:20:54.248Z,10.10
2018-06-10T19:23:23.965Z,11.20
2018-06-10T19:25:53.305Z,10.03
2018-06-10T19:28:23.365Z,10.03
2018-06-10T19:30:54.410Z,10.60
2018-06-10T19:33:24.709Z,11.10
2018-06-10T19:35:54.350Z,10.80
2018-06-10T19:38:24.578Z,10.83
2018-06-10T19:40:56.006Z,10.43
2018-06-10T19:43:25.891Z,10.87
2018-06-10T19:45:55.817Z,10.83
2018-06-10T19:48:24.879Z,10.30
2018-06-10T19:50:53.603Z,11.17
2018-06-10T19:53:23.892Z,11.50
2018-06-10T19:55:54.779Z,11.47
2018-06-10T19:58:24.550Z,11.40
2018-06-10T20:00:53.923Z,11.70
2018-06-10T20:03:23.596Z,11.40
2018-06-10T20:05:53.471Z,11.30
2018-06-10T20:08:23.974Z,11.77
2018-06-10T20:10:52.867Z,11.40
2018-06-10T20:13:22.182Z,11.20
2018-06-10T20:15:51.462Z,11.47
2018-06-10T20:18:20.917Z,12.13
2018-06-10T20:20:49.811Z,11.87
2018-06-10T20:23:18.490Z,11.03
2018-06-10T20:25:47.115Z,11.80
2018-06-10T20:28:15.810Z,11.90
2018-06-10T20:30:44.910Z,12.43
2018-06-10T20:33:13.965Z,11.80
2018-06-10T20:35:43.281Z,11.97
2018-06-10T20:38:12.167Z,11.13
2018-06-10T20:40:40.887Z,11.83
2018-06-10T20:43:09.674Z,11.40
2018-06-10T20:45:38.260Z,11.80
2018-06-10T20:48:07.335Z,11.20
2018-06-10T20:50:35.942Z,11.63
2018-06-10T20:53:04.599Z,11.60
2018-06-10T20:55:33.236Z,11.57
2018-06-10T20:58:01.862Z,11.37
2018-06-10T21:00:30.111Z,11.10
2018-06-10T21:02:58.963Z,11.20
2018-06-10T21:05:28.008Z,11.27
2018-06-10T21:07:57.086Z,11.80
2018-06-10T21:10:26.445Z,11.80
2018-06-10T21:12:56.470Z,11.53
2018-06-10T21:15:25.742Z,11.13
2018-06-10T21:17:56.025Z,11.73
2018-06-10T21:20:25.785Z,11.17
2018-06-10T21:22:55.090Z,11.90
2018-06-10T21:25:25.582Z,10.80
2018-06-10T21:27:56.762Z,10.63
2018-06-10T21:30:26.641Z,11.10
2018-06-10T21:32:56.749Z,12.20
2018-06-10T21:35:26.341Z,12.43
2018-06-10T21:37:55.818Z,11.50
2018-06-10T21:40:25.192Z,12.37
2018-06-10T21:42:57.066Z,11.60
2018-06-10T21:45:26.119Z,11.40
2018-06-10T21:47:55.270Z,11.20
2018-06-10T21:50:25.252Z,11.03
2018-06-10T21:52:54.697Z,11.23
2018-06-10T21:55:23.674Z,11.67
2018-06-10T21:57:52.649Z,11.50
2018-06-10T22:00:25.925Z,11.20
2018-06-10T22:02:55.512Z,11.27
2018-06-10T22:05:26.229Z,11.27
2018-06-10T22:07:55.409Z,12.40
2018-06-10T22:10:25.375Z,10.93
2018-06-10T22:12:54.771Z,12.27
2018-06-10T22:15:24.130Z,11.70
2018-06-10T22:17:53.040Z,11.77
2018-06-10T22:20:22.839Z,11.07
2018-06-10T22:22:52.297Z,12.33
2018-06-10T22:25:22.406Z,11.80
2018-06-10T22:27:51.687Z,11.57
2018-06-10T22:30:20.514Z,11.83
2018-06-10T22:32:49.213Z,13.13
2018-06-10T22:35:18.278Z,12.23
2018-06-10T22:37:46.946Z,12.50
2018-06-10T22:40:15.788Z,11.83
2018-06-10T22:42:44.942Z,12.17
2018-06-10T22:45:14.526Z,12.50
2018-06-10T22:47:43.724Z,13.43
2018-06-10T22:50:13.249Z,12.80
2018-06-10T22:52:42.685Z,13.53
2018-06-10T22:55:12.725Z,12.83
2018-06-10T22:57:41.642Z,13.70
2018-06-10T23:00:10.381Z,14.27
2018-06-10T23:02:39.166Z,14.37
2018-06-10T23:05:07.789Z,14.37
2018-06-10T23:07:36.412Z,13.80
2018-06-10T23:10:05.104Z,13.87
2018-06-10T23:12:33.703Z,14.00
2018-06-10T23:15:02.328Z,15.27
2018-06-10T23:17:30.950Z,15.70
2018-06-10T23:19:59.697Z,15.37
2018-06-10T23:22:46.949Z,14.73
2018-06-10T23:25:15.961Z,15.10
2018-06-10T23:27:45.581Z,15.20
2018-06-10T23:30:14.901Z,15.20
2018-06-10T23:32:44.671Z,14.83
2018-06-10T23:35:14.093Z,14.33
2018-06-10T23:37:43.017Z,16.30
2018-06-10T23:40:11.976Z,16.03
2018-06-10T23:42:40.926Z,17.30
2018-06-10T23:45:09.533Z,15.70
2018-06-10T23:47:38.250Z,17.10
2018-06-10T23:50:06.865Z,16.80
2018-06-10T23:52:35.471Z,17.03
2018-06-10T23:55:10.662Z,16.97
2018-06-10T23:57:39.268Z,15.47
